sensor_id;sensor_type;location;lat;lon;timestamp;temperature;humidity
56512;DHT22;42408;53.238;5.686;2023-12-22T00:00:44;6.50;99.90
56512;DHT22;42408;53.238;5.686;2023-12-22T00:03:13;6.50;99.90
56512;DHT22;42408;53.238;5.686;2023-12-22T00:05:38;6.40;99.90
56512;DHT22;42408;53.238;5.686;2023-12-22T00:08:04;6.40;99.90
56512;DHT22;42408;53.238;5.686;2023-12-22T00:10:30;6.30;99.90
56512;DHT22;42408;53.238;5.686;2023-12-22T00:12:55;6.30;99.90
56512;DHT22;42408;53.238;5.686;2023-12-22T00:15:20;6.30;99.90
56512;DHT22;42408;53.238;5.686;2023-12-22T00:17:46;6.30;99.90
56512;DHT22;42408;53.238;5.686;2023-12-22T00:20:12;6.40;99.90
56512;DHT22;42408;53.238;5.686;2023-12-22T00:22:39;6.40;99.90
56512;DHT22;42408;53.238;5.686;2023-12-22T00:25:05;6.40;99.90
56512;DHT22;42408;53.238;5.686;2023-12-22T00:27:32;6.50;99.90
56512;DHT22;42408;53.238;5.686;2023-12-22T00:29:58;6.60;99.90
56512;DHT22;42408;53.238;5.686;2023-12-22T00:32:23;6.60;99.90
56512;DHT22;42408;53.238;5.686;2023-12-22T00:34:48;6.60;99.90
56512;DHT22;42408;53.238;5.686;2023-12-22T00:37:14;6.70;99.90
56512;DHT22;42408;53.238;5.686;2023-12-22T00:39:40;6.70;99.90
56512;DHT22;42408;53.238;5.686;2023-12-22T00:42:05;6.70;99.90
56512;DHT22;42408;53.238;5.686;2023-12-22T00:44:31;6.60;99.90
56512;DHT22;42408;53.238;5.686;2023-12-22T00:46:56;6.60;99.90
56512;DHT22;42408;53.238;5.686;2023-12-22T00:49:22;6.70;99.90
56512;DHT22;42408;53.238;5.686;2023-12-22T00:51:47;6.70;99.90
56512;DHT22;42408;53.238;5.686;2023-12-22T00:54:13;6.70;99.90
56512;DHT22;42408;53.238;5.686;2023-12-22T00:56:38;6.70;99.90
56512;DHT22;42408;53.238;5.686;2023-12-22T00:59:04;6.60;99.90
56512;DHT22;42408;53.238;5.686;2023-12-22T01:01:29;6.60;99.90
56512;DHT22;42408;53.238;5.686;2023-12-22T01:03:55;6.50;99.90
56512;DHT22;42408;53.238;5.686;2023-12-22T01:06:21;6.70;99.90
56512;DHT22;42408;53.238;5.686;2023-12-22T01:08:47;6.50;99.90
56512;DHT22;42408;53.238;5.686;2023-12-22T01:11:18;6.50;99.90
56512;DHT22;42408;53.238;5.686;2023-12-22T01:13:44;6.40;99.90
56512;DHT22;42408;53.238;5.686;2023-12-22T01:16:09;6.40;99.90
56512;DHT22;42408;53.238;5.686;2023-12-22T01:18:35;6.70;99.90
56512;DHT22;42408;53.238;5.686;2023-12-22T01:21:00;6.40;99.90
56512;DHT22;42408;53.238;5.686;2023-12-22T01:23:26;6.40;99.90
56512;DHT22;42408;53.238;5.686;2023-12-22T01:25:51;6.40;99.90
56512;DHT22;42408;53.238;5.686;2023-12-22T01:28:17;6.50;99.90
56512;DHT22;42408;53.238;5.686;2023-12-22T01:30:42;6.50;99.90
56512;DHT22;42408;53.238;5.686;2023-12-22T01:33:08;6.50;99.90
56512;DHT22;42408;53.238;5.686;2023-12-22T01:35:33;6.60;99.90
56512;DHT22;42408;53.238;5.686;2023-12-22T01:37:59;6.70;99.90
56512;DHT22;42408;53.238;5.686;2023-12-22T01:40:24;6.70;99.90
56512;DHT22;42408;53.238;5.686;2023-12-22T01:42:50;6.70;99.90
56512;DHT22;42408;53.238;5.686;2023-12-22T01:45:16;6.70;99.90
56512;DHT22;42408;53.238;5.686;2023-12-22T01:47:41;6.80;99.90
56512;DHT22;42408;53.238;5.686;2023-12-22T01:50:07;6.80;99.90
56512;DHT22;42408;53.238;5.686;2023-12-22T01:52:36;6.80;99.90
56512;DHT22;42408;53.238;5.686;2023-12-22T01:55:02;6.90;99.90
56512;DHT22;42408;53.238;5.686;2023-12-22T01:57:28;6.80;99.90
56512;DHT22;42408;53.238;5.686;2023-12-22T01:59:54;6.70;99.90
56512;DHT22;42408;53.238;5.686;2023-12-22T02:02:19;6.70;99.90
56512;DHT22;42408;53.238;5.686;2023-12-22T02:04:45;6.60;99.90
56512;DHT22;42408;53.238;5.686;2023-12-22T02:07:12;6.50;99.90
56512;DHT22;42408;53.238;5.686;2023-12-22T02:09:37;6.50;99.90
56512;DHT22;42408;53.238;5.686;2023-12-22T02:12:03;6.50;99.90
56512;DHT22;42408;53.238;5.686;2023-12-22T02:14:29;6.50;99.90
56512;DHT22;42408;53.238;5.686;2023-12-22T02:22:05;6.50;99.90
56512;DHT22;42408;53.238;5.686;2023-12-22T02:24:30;6.50;99.90
56512;DHT22;42408;53.238;5.686;2023-12-22T02:26:57;6.50;99.90
56512;DHT22;42408;53.238;5.686;2023-12-22T02:29:26;6.50;99.90
56512;DHT22;42408;53.238;5.686;2023-12-22T02:31:53;6.50;99.90
56512;DHT22;42408;53.238;5.686;2023-12-22T02:34:19;6.50;99.90
56512;DHT22;42408;53.238;5.686;2023-12-22T02:36:45;6.40;99.90
56512;DHT22;42408;53.238;5.686;2023-12-22T02:39:13;6.40;99.90
56512;DHT22;42408;53.238;5.686;2023-12-22T02:41:39;6.30;99.90
56512;DHT22;42408;53.238;5.686;2023-12-22T02:44:04;6.30;99.90
56512;DHT22;42408;53.238;5.686;2023-12-22T02:46:30;6.20;99.90
56512;DHT22;42408;53.238;5.686;2023-12-22T02:48:56;6.20;99.90
56512;DHT22;42408;53.238;5.686;2023-12-22T02:51:21;6.10;99.90
56512;DHT22;42408;53.238;5.686;2023-12-22T02:53:47;6.10;99.90
56512;DHT22;42408;53.238;5.686;2023-12-22T02:56:12;6.10;99.90
56512;DHT22;42408;53.238;5.686;2023-12-22T02:58:38;6.10;99.90
56512;DHT22;42408;53.238;5.686;2023-12-22T03:01:03;6.20;99.90
56512;DHT22;42408;53.238;5.686;2023-12-22T03:03:29;6.20;99.90
56512;DHT22;42408;53.238;5.686;2023-12-22T03:05:54;6.20;99.90
56512;DHT22;42408;53.238;5.686;2023-12-22T03:08:20;6.20;99.90
56512;DHT22;42408;53.238;5.686;2023-12-22T03:10:45;6.20;99.90
56512;DHT22;42408;53.238;5.686;2023-12-22T03:13:11;6.30;99.90
56512;DHT22;42408;53.238;5.686;2023-12-22T03:15:36;6.20;99.90
56512;DHT22;42408;53.238;5.686;2023-12-22T03:18:01;6.30;99.90
56512;DHT22;42408;53.238;5.686;2023-12-22T03:20:27;6.30;99.90
56512;DHT22;42408;53.238;5.686;2023-12-22T03:22:52;6.30;99.90
56512;DHT22;42408;53.238;5.686;2023-12-22T03:25:18;6.30;99.90
56512;DHT22;42408;53.238;5.686;2023-12-22T03:27:44;6.30;99.90
56512;DHT22;42408;53.238;5.686;2023-12-22T03:30:09;6.30;99.90
56512;DHT22;42408;53.238;5.686;2023-12-22T03:32:35;6.30;99.90
56512;DHT22;42408;53.238;5.686;2023-12-22T03:35:00;6.30;99.90
56512;DHT22;42408;53.238;5.686;2023-12-22T03:37:26;6.30;99.90
56512;DHT22;42408;53.238;5.686;2023-12-22T03:39:51;6.60;99.90
56512;DHT22;42408;53.238;5.686;2023-12-22T03:42:17;6.40;99.90
56512;DHT22;42408;53.238;5.686;2023-12-22T03:44:42;6.40;99.90
56512;DHT22;42408;53.238;5.686;2023-12-22T03:47:08;6.40;99.90
56512;DHT22;42408;53.238;5.686;2023-12-22T03:49:33;6.50;99.90
56512;DHT22;42408;53.238;5.686;2023-12-22T03:51:59;6.50;99.90
56512;DHT22;42408;53.238;5.686;2023-12-22T03:54:24;6.50;99.90
56512;DHT22;42408;53.238;5.686;2023-12-22T03:56:50;6.50;99.90
56512;DHT22;42408;53.238;5.686;2023-12-22T03:59:15;6.50;99.90
56512;DHT22;42408;53.238;5.686;2023-12-22T04:01:43;6.50;99.90
56512;DHT22;42408;53.238;5.686;2023-12-22T04:04:09;6.50;99.90
56512;DHT22;42408;53.238;5.686;2023-12-22T04:06:38;6.60;99.90
56512;DHT22;42408;53.238;5.686;2023-12-22T04:09:05;6.60;99.90
56512;DHT22;42408;53.238;5.686;2023-12-22T04:11:31;6.80;99.90
56512;DHT22;42408;53.238;5.686;2023-12-22T04:13:56;6.60;99.90
56512;DHT22;42408;53.238;5.686;2023-12-22T04:16:22;6.60;99.90
56512;DHT22;42408;53.238;5.686;2023-12-22T04:18:47;6.60;99.90
56512;DHT22;42408;53.238;5.686;2023-12-22T04:21:13;6.60;99.90
56512;DHT22;42408;53.238;5.686;2023-12-22T04:23:38;6.60;99.90
56512;DHT22;42408;53.238;5.686;2023-12-22T04:26:04;6.60;99.90
56512;DHT22;42408;53.238;5.686;2023-12-22T04:28:29;6.70;99.90
56512;DHT22;42408;53.238;5.686;2023-12-22T04:30:55;6.70;99.90
56512;DHT22;42408;53.238;5.686;2023-12-22T04:33:20;6.70;99.90
56512;DHT22;42408;53.238;5.686;2023-12-22T04:35:46;6.70;99.90
56512;DHT22;42408;53.238;5.686;2023-12-22T04:38:11;6.70;99.90
56512;DHT22;42408;53.238;5.686;2023-12-22T04:40:37;6.70;99.90
56512;DHT22;42408;53.238;5.686;2023-12-22T04:43:02;6.70;99.90
56512;DHT22;42408;53.238;5.686;2023-12-22T04:45:28;6.70;99.90
56512;DHT22;42408;53.238;5.686;2023-12-22T04:47:53;6.70;99.90
56512;DHT22;42408;53.238;5.686;2023-12-22T04:50:19;6.70;99.90
56512;DHT22;42408;53.238;5.686;2023-12-22T04:52:45;6.70;99.90
56512;DHT22;42408;53.238;5.686;2023-12-22T04:55:10;6.70;99.90
56512;DHT22;42408;53.238;5.686;2023-12-22T04:57:36;6.70;99.90
56512;DHT22;42408;53.238;5.686;2023-12-22T05:00:01;6.80;99.90
56512;DHT22;42408;53.238;5.686;2023-12-22T05:02:27;6.70;99.90
56512;DHT22;42408;53.238;5.686;2023-12-22T05:04:54;6.70;99.90
56512;DHT22;42408;53.238;5.686;2023-12-22T05:07:19;7.00;99.90
56512;DHT22;42408;53.238;5.686;2023-12-22T05:09:45;6.70;99.90
56512;DHT22;42408;53.238;5.686;2023-12-22T05:12:11;6.70;99.90
56512;DHT22;42408;53.238;5.686;2023-12-22T05:14:36;6.70;99.90
56512;DHT22;42408;53.238;5.686;2023-12-22T05:17:02;6.70;99.90
56512;DHT22;42408;53.238;5.686;2023-12-22T05:19:27;6.70;99.90
56512;DHT22;42408;53.238;5.686;2023-12-22T05:21:53;6.70;99.90
56512;DHT22;42408;53.238;5.686;2023-12-22T05:24:21;6.70;99.90
56512;DHT22;42408;53.238;5.686;2023-12-22T05:26:47;6.80;99.90
56512;DHT22;42408;53.238;5.686;2023-12-22T05:29:12;6.80;99.90
56512;DHT22;42408;53.238;5.686;2023-12-22T05:31:38;6.80;99.90
56512;DHT22;42408;53.238;5.686;2023-12-22T05:34:03;6.80;99.90
56512;DHT22;42408;53.238;5.686;2023-12-22T05:36:29;6.80;99.90
56512;DHT22;42408;53.238;5.686;2023-12-22T05:38:54;6.80;99.90
56512;DHT22;42408;53.238;5.686;2023-12-22T05:41:20;6.80;99.90
56512;DHT22;42408;53.238;5.686;2023-12-22T05:43:45;6.90;99.90
56512;DHT22;42408;53.238;5.686;2023-12-22T05:46:11;6.80;99.90
56512;DHT22;42408;53.238;5.686;2023-12-22T05:48:36;6.80;99.90
56512;DHT22;42408;53.238;5.686;2023-12-22T05:51:02;6.90;99.90
56512;DHT22;42408;53.238;5.686;2023-12-22T05:53:29;6.80;99.90
56512;DHT22;42408;53.238;5.686;2023-12-22T05:55:54;6.80;99.90
56512;DHT22;42408;53.238;5.686;2023-12-22T05:58:20;6.80;99.90
56512;DHT22;42408;53.238;5.686;2023-12-22T06:00:45;6.80;99.90
56512;DHT22;42408;53.238;5.686;2023-12-22T06:03:11;6.80;99.90
56512;DHT22;42408;53.238;5.686;2023-12-22T06:05:36;6.90;99.90
56512;DHT22;42408;53.238;5.686;2023-12-22T06:08:02;6.90;99.90
56512;DHT22;42408;53.238;5.686;2023-12-22T06:10:27;6.90;99.90
56512;DHT22;42408;53.238;5.686;2023-12-22T06:12:53;6.90;99.90
56512;DHT22;42408;53.238;5.686;2023-12-22T06:15:18;6.90;99.90
56512;DHT22;42408;53.238;5.686;2023-12-22T06:17:44;6.90;99.90
56512;DHT22;42408;53.238;5.686;2023-12-22T06:20:10;6.90;99.90
56512;DHT22;42408;53.238;5.686;2023-12-22T06:22:35;6.90;99.90
56512;DHT22;42408;53.238;5.686;2023-12-22T06:25:01;6.90;99.90
56512;DHT22;42408;53.238;5.686;2023-12-22T06:27:28;6.90;99.90
56512;DHT22;42408;53.238;5.686;2023-12-22T06:29:53;6.90;99.90
56512;DHT22;42408;53.238;5.686;2023-12-22T06:32:21;6.90;99.90
56512;DHT22;42408;53.238;5.686;2023-12-22T06:34:46;6.90;99.90
56512;DHT22;42408;53.238;5.686;2023-12-22T06:37:12;6.90;99.90
56512;DHT22;42408;53.238;5.686;2023-12-22T06:39:37;6.90;99.90
56512;DHT22;42408;53.238;5.686;2023-12-22T06:42:03;6.90;99.90
56512;DHT22;42408;53.238;5.686;2023-12-22T06:44:30;6.90;99.90
56512;DHT22;42408;53.238;5.686;2023-12-22T06:46:56;6.90;99.90
56512;DHT22;42408;53.238;5.686;2023-12-22T06:49:22;6.90;99.90
56512;DHT22;42408;53.238;5.686;2023-12-22T06:51:47;6.90;99.90
56512;DHT22;42408;53.238;5.686;2023-12-22T06:54:13;6.90;99.90
56512;DHT22;42408;53.238;5.686;2023-12-22T06:56:38;6.90;99.90
56512;DHT22;42408;53.238;5.686;2023-12-22T06:59:05;6.90;99.90
56512;DHT22;42408;53.238;5.686;2023-12-22T07:01:31;6.90;99.90
56512;DHT22;42408;53.238;5.686;2023-12-22T07:03:58;6.90;99.90
56512;DHT22;42408;53.238;5.686;2023-12-22T07:06:27;6.90;99.90
56512;DHT22;42408;53.238;5.686;2023-12-22T07:11:43;7.00;99.90
56512;DHT22;42408;53.238;5.686;2023-12-22T07:14:08;7.00;99.90
56512;DHT22;42408;53.238;5.686;2023-12-22T07:16:35;7.00;99.90
56512;DHT22;42408;53.238;5.686;2023-12-22T07:19:00;7.20;99.90
56512;DHT22;42408;53.238;5.686;2023-12-22T07:21:26;7.10;99.90
56512;DHT22;42408;53.238;5.686;2023-12-22T07:23:52;7.10;99.90
56512;DHT22;42408;53.238;5.686;2023-12-22T07:26:17;7.10;99.90
56512;DHT22;42408;53.238;5.686;2023-12-22T07:28:43;7.20;99.90
56512;DHT22;42408;53.238;5.686;2023-12-22T07:31:08;7.30;99.90
56512;DHT22;42408;53.238;5.686;2023-12-22T07:33:34;7.40;99.90
56512;DHT22;42408;53.238;5.686;2023-12-22T07:35:59;7.20;99.90
56512;DHT22;42408;53.238;5.686;2023-12-22T07:38:25;7.20;99.90
56512;DHT22;42408;53.238;5.686;2023-12-22T07:40:50;7.20;99.90
56512;DHT22;42408;53.238;5.686;2023-12-22T07:43:16;7.20;99.90
56512;DHT22;42408;53.238;5.686;2023-12-22T07:45:41;7.30;99.90
56512;DHT22;42408;53.238;5.686;2023-12-22T07:48:07;7.30;99.90
56512;DHT22;42408;53.238;5.686;2023-12-22T07:50:33;7.20;99.90
56512;DHT22;42408;53.238;5.686;2023-12-22T07:52:58;7.20;99.90
56512;DHT22;42408;53.238;5.686;2023-12-22T07:55:24;7.20;99.90
56512;DHT22;42408;53.238;5.686;2023-12-22T07:57:50;7.20;99.90
56512;DHT22;42408;53.238;5.686;2023-12-22T08:00:16;7.20;99.90
56512;DHT22;42408;53.238;5.686;2023-12-22T08:02:42;7.20;99.90
56512;DHT22;42408;53.238;5.686;2023-12-22T08:05:07;7.20;99.90
56512;DHT22;42408;53.238;5.686;2023-12-22T08:07:33;6.90;99.90
56512;DHT22;42408;53.238;5.686;2023-12-22T08:09:58;6.90;99.90
56512;DHT22;42408;53.238;5.686;2023-12-22T08:12:24;6.80;99.90
56512;DHT22;42408;53.238;5.686;2023-12-22T08:14:49;6.80;99.90
56512;DHT22;42408;53.238;5.686;2023-12-22T08:17:15;6.70;99.90
56512;DHT22;42408;53.238;5.686;2023-12-22T08:19:41;6.70;99.90
56512;DHT22;42408;53.238;5.686;2023-12-22T08:22:09;6.60;99.90
56512;DHT22;42408;53.238;5.686;2023-12-22T08:24:36;6.70;99.90
56512;DHT22;42408;53.238;5.686;2023-12-22T08:27:02;6.70;99.90
56512;DHT22;42408;53.238;5.686;2023-12-22T08:29:27;6.70;99.90
56512;DHT22;42408;53.238;5.686;2023-12-22T08:31:53;6.70;99.90
56512;DHT22;42408;53.238;5.686;2023-12-22T08:34:19;6.70;99.90
56512;DHT22;42408;53.238;5.686;2023-12-22T08:36:44;6.60;99.90
56512;DHT22;42408;53.238;5.686;2023-12-22T08:39:10;6.70;99.90
56512;DHT22;42408;53.238;5.686;2023-12-22T08:41:35;6.70;99.90
56512;DHT22;42408;53.238;5.686;2023-12-22T08:44:05;6.70;99.90
56512;DHT22;42408;53.238;5.686;2023-12-22T08:46:31;6.70;99.90
56512;DHT22;42408;53.238;5.686;2023-12-22T08:48:57;6.70;99.90
56512;DHT22;42408;53.238;5.686;2023-12-22T08:51:24;6.70;99.90
56512;DHT22;42408;53.238;5.686;2023-12-22T08:53:50;6.70;99.90
56512;DHT22;42408;53.238;5.686;2023-12-22T08:56:18;6.70;99.90
56512;DHT22;42408;53.238;5.686;2023-12-22T08:58:43;6.70;99.90
56512;DHT22;42408;53.238;5.686;2023-12-22T09:01:15;6.70;99.90
56512;DHT22;42408;53.238;5.686;2023-12-22T09:03:41;6.70;99.90
56512;DHT22;42408;53.238;5.686;2023-12-22T09:06:11;6.70;99.90
56512;DHT22;42408;53.238;5.686;2023-12-22T09:08:38;6.80;99.90
56512;DHT22;42408;53.238;5.686;2023-12-22T09:11:04;6.90;99.90
56512;DHT22;42408;53.238;5.686;2023-12-22T09:13:29;6.90;99.90
56512;DHT22;42408;53.238;5.686;2023-12-22T09:15:56;6.90;99.90
56512;DHT22;42408;53.238;5.686;2023-12-22T09:18:22;7.00;99.90
56512;DHT22;42408;53.238;5.686;2023-12-22T09:20:48;7.00;99.90
56512;DHT22;42408;53.238;5.686;2023-12-22T09:23:14;7.10;99.90
56512;DHT22;42408;53.238;5.686;2023-12-22T09:25:39;7.10;99.90
56512;DHT22;42408;53.238;5.686;2023-12-22T09:28:05;7.10;99.90
56512;DHT22;42408;53.238;5.686;2023-12-22T09:30:31;7.20;99.90
56512;DHT22;42408;53.238;5.686;2023-12-22T09:32:57;7.30;99.90
56512;DHT22;42408;53.238;5.686;2023-12-22T09:35:22;7.20;99.90
56512;DHT22;42408;53.238;5.686;2023-12-22T09:37:50;7.30;99.90
56512;DHT22;42408;53.238;5.686;2023-12-22T09:40:16;7.30;99.90
56512;DHT22;42408;53.238;5.686;2023-12-22T09:42:41;7.40;99.90
56512;DHT22;42408;53.238;5.686;2023-12-22T09:45:10;7.30;99.90
56512;DHT22;42408;53.238;5.686;2023-12-22T09:47:37;7.40;99.90
56512;DHT22;42408;53.238;5.686;2023-12-22T09:50:03;7.40;99.90
56512;DHT22;42408;53.238;5.686;2023-12-22T09:52:29;7.40;99.90
56512;DHT22;42408;53.238;5.686;2023-12-22T09:54:55;7.50;99.90
56512;DHT22;42408;53.238;5.686;2023-12-22T09:57:21;7.50;99.90
56512;DHT22;42408;53.238;5.686;2023-12-22T09:59:49;7.60;99.90
56512;DHT22;42408;53.238;5.686;2023-12-22T10:02:16;7.60;99.90
56512;DHT22;42408;53.238;5.686;2023-12-22T10:04:41;7.60;99.90
56512;DHT22;42408;53.238;5.686;2023-12-22T10:07:07;7.70;99.90
56512;DHT22;42408;53.238;5.686;2023-12-22T10:09:33;7.70;99.90
56512;DHT22;42408;53.238;5.686;2023-12-22T10:12:00;7.70;99.90
56512;DHT22;42408;53.238;5.686;2023-12-22T10:14:26;7.80;99.90
56512;DHT22;42408;53.238;5.686;2023-12-22T10:16:52;7.80;99.90
56512;DHT22;42408;53.238;5.686;2023-12-22T10:19:18;7.80;99.90
56512;DHT22;42408;53.238;5.686;2023-12-22T10:21:45;7.70;99.90
56512;DHT22;42408;53.238;5.686;2023-12-22T10:24:36;7.80;99.90
56512;DHT22;42408;53.238;5.686;2023-12-22T10:26:56;7.80;99.90
56512;DHT22;42408;53.238;5.686;2023-12-22T10:29:21;7.80;99.90
56512;DHT22;42408;53.238;5.686;2023-12-22T10:31:47;7.90;99.90
56512;DHT22;42408;53.238;5.686;2023-12-22T10:34:12;7.90;99.90
56512;DHT22;42408;53.238;5.686;2023-12-22T10:36:38;7.90;99.90
56512;DHT22;42408;53.238;5.686;2023-12-22T10:39:03;7.90;99.90
56512;DHT22;42408;53.238;5.686;2023-12-22T10:41:29;7.90;99.90
56512;DHT22;42408;53.238;5.686;2023-12-22T10:43:55;7.90;99.90
56512;DHT22;42408;53.238;5.686;2023-12-22T10:46:20;7.90;99.90
56512;DHT22;42408;53.238;5.686;2023-12-22T10:48:46;7.90;99.90
56512;DHT22;42408;53.238;5.686;2023-12-22T10:51:11;8.00;99.90
56512;DHT22;42408;53.238;5.686;2023-12-22T10:53:40;7.90;99.90
56512;DHT22;42408;53.238;5.686;2023-12-22T10:56:05;8.10;99.90
56512;DHT22;42408;53.238;5.686;2023-12-22T10:58:31;8.00;99.90
56512;DHT22;42408;53.238;5.686;2023-12-22T11:00:56;8.00;99.90
56512;DHT22;42408;53.238;5.686;2023-12-22T11:03:23;8.00;99.90
56512;DHT22;42408;53.238;5.686;2023-12-22T11:05:51;8.10;99.90
56512;DHT22;42408;53.238;5.686;2023-12-22T11:08:19;8.10;99.90
56512;DHT22;42408;53.238;5.686;2023-12-22T11:10:47;8.10;99.90
56512;DHT22;42408;53.238;5.686;2023-12-22T11:13:16;8.10;99.90
56512;DHT22;42408;53.238;5.686;2023-12-22T11:15:42;8.10;99.90
56512;DHT22;42408;53.238;5.686;2023-12-22T11:18:08;8.10;99.90
56512;DHT22;42408;53.238;5.686;2023-12-22T11:20:34;8.10;99.90
56512;DHT22;42408;53.238;5.686;2023-12-22T11:23:00;8.10;99.90
56512;DHT22;42408;53.238;5.686;2023-12-22T11:25:26;8.10;99.90
56512;DHT22;42408;53.238;5.686;2023-12-22T11:27:52;8.20;99.90
56512;DHT22;42408;53.238;5.686;2023-12-22T11:30:19;8.20;99.90
56512;DHT22;42408;53.238;5.686;2023-12-22T11:32:45;8.20;99.90
56512;DHT22;42408;53.238;5.686;2023-12-22T11:35:11;8.10;99.90
56512;DHT22;42408;53.238;5.686;2023-12-22T11:37:36;8.10;99.90
56512;DHT22;42408;53.238;5.686;2023-12-22T11:40:03;8.10;99.90
56512;DHT22;42408;53.238;5.686;2023-12-22T11:42:30;8.10;99.90
56512;DHT22;42408;53.238;5.686;2023-12-22T11:44:57;8.10;99.90
56512;DHT22;42408;53.238;5.686;2023-12-22T11:47:24;8.30;99.90
56512;DHT22;42408;53.238;5.686;2023-12-22T11:49:49;8.20;99.90
56512;DHT22;42408;53.238;5.686;2023-12-22T11:52:18;8.10;99.90
56512;DHT22;42408;53.238;5.686;2023-12-22T11:54:50;8.20;99.90
56512;DHT22;42408;53.238;5.686;2023-12-22T12:00:04;8.10;99.90
56512;DHT22;42408;53.238;5.686;2023-12-22T12:02:32;8.20;99.90
56512;DHT22;42408;53.238;5.686;2023-12-22T12:04:58;8.10;99.90
56512;DHT22;42408;53.238;5.686;2023-12-22T12:07:40;8.20;99.90
56512;DHT22;42408;53.238;5.686;2023-12-22T12:10:08;8.10;99.90
56512;DHT22;42408;53.238;5.686;2023-12-22T12:12:34;8.10;99.90
56512;DHT22;42408;53.238;5.686;2023-12-22T12:15:06;8.10;99.90
56512;DHT22;42408;53.238;5.686;2023-12-22T12:17:32;8.00;99.90
56512;DHT22;42408;53.238;5.686;2023-12-22T12:19:58;8.20;99.90
56512;DHT22;42408;53.238;5.686;2023-12-22T12:22:25;8.10;99.90
56512;DHT22;42408;53.238;5.686;2023-12-22T12:24:51;8.10;99.90
56512;DHT22;42408;53.238;5.686;2023-12-22T12:27:20;8.00;99.90
56512;DHT22;42408;53.238;5.686;2023-12-22T12:29:45;8.10;99.90
56512;DHT22;42408;53.238;5.686;2023-12-22T12:32:13;8.00;99.90
56512;DHT22;42408;53.238;5.686;2023-12-22T12:34:40;8.00;99.90
56512;DHT22;42408;53.238;5.686;2023-12-22T12:37:07;8.00;99.90
56512;DHT22;42408;53.238;5.686;2023-12-22T12:39:33;8.00;99.90
56512;DHT22;42408;53.238;5.686;2023-12-22T12:42:00;8.00;99.90
56512;DHT22;42408;53.238;5.686;2023-12-22T12:44:26;8.10;99.90
56512;DHT22;42408;53.238;5.686;2023-12-22T12:46:52;8.10;99.90
56512;DHT22;42408;53.238;5.686;2023-12-22T12:49:18;8.10;99.90
56512;DHT22;42408;53.238;5.686;2023-12-22T12:51:47;8.00;99.90
56512;DHT22;42408;53.238;5.686;2023-12-22T12:54:14;8.10;99.90
56512;DHT22;42408;53.238;5.686;2023-12-22T12:56:40;8.10;99.90
56512;DHT22;42408;53.238;5.686;2023-12-22T12:59:12;8.10;99.90
56512;DHT22;42408;53.238;5.686;2023-12-22T13:01:38;8.10;99.90
56512;DHT22;42408;53.238;5.686;2023-12-22T13:04:04;8.10;99.90
56512;DHT22;42408;53.238;5.686;2023-12-22T13:06:30;8.10;99.90
56512;DHT22;42408;53.238;5.686;2023-12-22T13:08:55;8.10;99.90
56512;DHT22;42408;53.238;5.686;2023-12-22T13:11:27;8.10;99.90
56512;DHT22;42408;53.238;5.686;2023-12-22T13:13:54;8.00;99.90
56512;DHT22;42408;53.238;5.686;2023-12-22T13:16:20;8.00;99.90
56512;DHT22;42408;53.238;5.686;2023-12-22T13:18:46;8.00;99.90
56512;DHT22;42408;53.238;5.686;2023-12-22T13:21:12;8.00;99.90
56512;DHT22;42408;53.238;5.686;2023-12-22T13:23:37;7.90;99.90
56512;DHT22;42408;53.238;5.686;2023-12-22T13:26:03;7.90;99.90
56512;DHT22;42408;53.238;5.686;2023-12-22T13:28:28;7.90;99.90
56512;DHT22;42408;53.238;5.686;2023-12-22T13:30:54;7.80;99.90
56512;DHT22;42408;53.238;5.686;2023-12-22T13:33:20;7.80;99.90
56512;DHT22;42408;53.238;5.686;2023-12-22T13:35:45;7.60;99.90
56512;DHT22;42408;53.238;5.686;2023-12-22T13:38:12;7.60;99.90
56512;DHT22;42408;53.238;5.686;2023-12-22T13:40:37;7.60;99.90
56512;DHT22;42408;53.238;5.686;2023-12-22T13:43:03;7.70;99.90
56512;DHT22;42408;53.238;5.686;2023-12-22T13:45:29;7.50;99.90
56512;DHT22;42408;53.238;5.686;2023-12-22T13:47:56;7.50;99.90
56512;DHT22;42408;53.238;5.686;2023-12-22T13:50:22;7.50;99.90
56512;DHT22;42408;53.238;5.686;2023-12-22T13:52:50;7.50;99.90
56512;DHT22;42408;53.238;5.686;2023-12-22T13:55:16;7.50;99.90
56512;DHT22;42408;53.238;5.686;2023-12-22T13:57:43;7.40;99.90
56512;DHT22;42408;53.238;5.686;2023-12-22T14:02:47;7.40;99.90
56512;DHT22;42408;53.238;5.686;2023-12-22T14:05:19;7.40;99.90
56512;DHT22;42408;53.238;5.686;2023-12-22T14:07:45;7.40;99.90
56512;DHT22;42408;53.238;5.686;2023-12-22T14:10:11;7.40;99.90
56512;DHT22;42408;53.238;5.686;2023-12-22T14:12:37;7.40;99.90
56512;DHT22;42408;53.238;5.686;2023-12-22T14:15:12;7.40;99.90
56512;DHT22;42408;53.238;5.686;2023-12-22T14:17:38;7.30;99.90
56512;DHT22;42408;53.238;5.686;2023-12-22T14:20:04;7.30;99.90
56512;DHT22;42408;53.238;5.686;2023-12-22T14:22:35;7.30;99.90
56512;DHT22;42408;53.238;5.686;2023-12-22T14:25:01;7.40;99.90
56512;DHT22;42408;53.238;5.686;2023-12-22T14:27:26;7.40;99.90
56512;DHT22;42408;53.238;5.686;2023-12-22T14:29:52;7.30;99.90
56512;DHT22;42408;53.238;5.686;2023-12-22T14:32:17;7.30;99.90
56512;DHT22;42408;53.238;5.686;2023-12-22T14:34:44;7.30;99.90
56512;DHT22;42408;53.238;5.686;2023-12-22T14:37:10;7.40;99.90
56512;DHT22;42408;53.238;5.686;2023-12-22T14:39:36;7.40;99.90
56512;DHT22;42408;53.238;5.686;2023-12-22T14:42:01;7.40;99.90
56512;DHT22;42408;53.238;5.686;2023-12-22T14:44:30;7.40;99.90
56512;DHT22;42408;53.238;5.686;2023-12-22T14:46:55;7.40;99.90
56512;DHT22;42408;53.238;5.686;2023-12-22T14:49:21;7.40;99.90
56512;DHT22;42408;53.238;5.686;2023-12-22T14:51:47;7.40;99.90
56512;DHT22;42408;53.238;5.686;2023-12-22T14:54:17;7.40;99.90
56512;DHT22;42408;53.238;5.686;2023-12-22T14:56:43;7.40;99.90
56512;DHT22;42408;53.238;5.686;2023-12-22T14:59:08;7.40;99.90
56512;DHT22;42408;53.238;5.686;2023-12-22T15:01:35;7.40;99.90
56512;DHT22;42408;53.238;5.686;2023-12-22T15:04:00;7.50;99.90
56512;DHT22;42408;53.238;5.686;2023-12-22T15:06:28;7.50;99.90
56512;DHT22;42408;53.238;5.686;2023-12-22T15:08:54;7.50;99.90
56512;DHT22;42408;53.238;5.686;2023-12-22T15:11:20;7.50;99.90
56512;DHT22;42408;53.238;5.686;2023-12-22T15:13:45;7.50;99.90
56512;DHT22;42408;53.238;5.686;2023-12-22T15:16:10;8.10;99.90
56512;DHT22;42408;53.238;5.686;2023-12-22T15:18:36;7.60;99.90
56512;DHT22;42408;53.238;5.686;2023-12-22T15:21:02;7.60;99.90
56512;DHT22;42408;53.238;5.686;2023-12-22T15:23:28;7.60;99.90
56512;DHT22;42408;53.238;5.686;2023-12-22T15:25:55;7.60;99.90
56512;DHT22;42408;53.238;5.686;2023-12-22T15:28:21;7.60;99.90
56512;DHT22;42408;53.238;5.686;2023-12-22T15:30:47;7.70;99.90
56512;DHT22;42408;53.238;5.686;2023-12-22T15:33:12;7.70;99.90
56512;DHT22;42408;53.238;5.686;2023-12-22T15:35:38;7.70;99.90
56512;DHT22;42408;53.238;5.686;2023-12-22T15:38:03;7.70;99.90
56512;DHT22;42408;53.238;5.686;2023-12-22T15:40:29;7.70;99.90
56512;DHT22;42408;53.238;5.686;2023-12-22T15:42:54;7.70;99.90
56512;DHT22;42408;53.238;5.686;2023-12-22T15:45:20;7.70;99.90
56512;DHT22;42408;53.238;5.686;2023-12-22T15:47:45;7.70;99.90
56512;DHT22;42408;53.238;5.686;2023-12-22T15:50:11;7.70;99.90